Time;durP1;ratioP1;P1;durP2;ratioP2;P2;SDS_P1;SDS_P2;PMS_P1;PMS_P2;Temp;Humidity;BMP_temperature;BMP_pressure;BME280_temperature;BME280_humidity;BME280_pressure;Samples;Min_cycle;Max_cycle;Signal;HPM_P1;HPM_P2
2023/12/02 00:01:41;;;;;;;54.10;22.23;;;1.20;88.30;;;;;;5030433;28;20189;-77
2023/12/02 00:04:11;;;;;;;48.60;22.27;;;1.10;88.10;;;;;;5037364;28;20170;-79
2023/12/02 00:06:37;;;;;;;49.20;21.30;;;1.00;88.00;;;;;;5035489;28;20178;-78
2023/12/02 00:09:24;;;;;;;51.37;21.30;;;0.90;88.00;;;;;;5035946;28;20193;-79
2023/12/02 00:11:50;;;;;;;44.40;18.77;;;0.90;88.30;;;;;;5033643;28;20445;-79
2023/12/02 00:14:17;;;;;;;43.43;18.27;;;0.90;88.40;;;;;;5033812;28;20190;-78
2023/12/02 00:16:45;;;;;;;58.00;20.90;;;1.00;88.40;;;;;;5036070;28;20241;-78
2023/12/02 00:19:11;;;;;;;49.45;21.02;;;1.00;88.60;;;;;;5034440;28;20213;-78
2023/12/02 00:21:38;;;;;;;57.10;21.55;;;0.80;88.40;;;;;;5030922;28;20262;-78
2023/12/02 00:24:08;;;;;;;44.90;18.98;;;0.80;88.60;;;;;;5028386;28;20198;-78
2023/12/02 00:26:35;;;;;;;53.33;21.20;;;0.80;88.60;;;;;;5034329;28;20193;-77
2023/12/02 00:29:02;;;;;;;54.58;21.13;;;1.00;88.60;;;;;;5014623;28;20229;-77
2023/12/02 00:31:28;;;;;;;47.45;20.40;;;0.90;88.70;;;;;;5032978;28;20206;-79
2023/12/02 00:33:54;;;;;;;48.67;20.57;;;0.90;88.60;;;;;;5032073;28;20344;-78
2023/12/02 00:36:19;;;;;;;52.57;20.50;;;1.00;88.60;;;;;;5032310;28;20279;-78
2023/12/02 00:38:45;;;;;;;44.50;19.57;;;0.90;88.60;;;;;;5031844;28;20467;-77
2023/12/02 00:41:15;;;;;;;51.27;21.90;;;0.90;88.40;;;;;;5027692;28;20201;-78
2023/12/02 00:43:41;;;;;;;52.05;21.65;;;0.90;88.60;;;;;;5037224;28;20197;-78
2023/12/02 00:46:13;;;;;;;48.53;20.20;;;0.80;88.30;;;;;;5026045;28;20186;-78
2023/12/02 00:48:39;;;;;;;51.80;22.95;;;0.90;88.30;;;;;;5031525;28;20204;-79
2023/12/02 00:51:07;;;;;;;45.13;20.00;;;0.80;88.30;;;;;;5030449;28;20198;-79
2023/12/02 00:53:36;;;;;;;47.58;20.23;;;0.80;88.30;;;;;;5035912;28;20190;-79
2023/12/02 00:56:02;;;;;;;48.65;19.50;;;1.00;88.30;;;;;;5035932;28;20286;-78
2023/12/02 00:58:37;;;;;;;45.35;19.45;;;0.90;88.30;;;;;;5029712;28;20213;-78
2023/12/02 01:01:03;;;;;;;52.45;21.98;;;1.00;88.10;;;;;;5034223;28;20336;-79
2023/12/02 01:03:29;;;;;;;46.25;21.70;;;1.00;88.10;;;;;;5029770;28;20177;-79
2023/12/02 01:05:56;;;;;;;62.07;24.13;;;0.70;88.00;;;;;;5036656;28;20170;-78
2023/12/02 01:08:22;;;;;;;50.20;19.58;;;0.60;88.10;;;;;;5036281;28;20460;-79
2023/12/02 01:10:49;;;;;;;51.87;21.47;;;0.70;88.40;;;;;;5028110;28;20442;-78
2023/12/02 01:13:17;;;;;;;53.00;21.45;;;0.70;88.70;;;;;;5028142;28;21026;-76
2023/12/02 01:15:53;;;;;;;47.78;21.67;;;0.60;88.70;;;;;;5034931;28;20174;-78
2023/12/02 01:18:20;;;;;;;50.38;21.77;;;0.60;88.70;;;;;;5034948;28;20241;-75
2023/12/02 01:20:46;;;;;;;47.63;21.65;;;0.60;88.90;;;;;;5033494;28;20220;-77
2023/12/02 01:23:12;;;;;;;54.23;23.13;;;0.60;88.90;;;;;;5031645;28;20675;-79
2023/12/02 01:25:38;;;;;;;48.57;19.80;;;0.50;88.70;;;;;;5032561;28;20182;-77
2023/12/02 01:28:06;;;;;;;48.92;21.60;;;0.60;88.90;;;;;;5035391;28;20198;-77
2023/12/02 01:30:32;;;;;;;51.75;21.25;;;0.60;89.00;;;;;;5028353;28;20233;-76
2023/12/02 01:32:57;;;;;;;53.30;21.93;;;0.50;88.90;;;;;;5032934;28;20194;-80
2023/12/02 01:35:23;;;;;;;56.80;23.43;;;0.50;88.90;;;;;;5032254;28;20181;-77
2023/12/02 01:37:49;;;;;;;50.33;21.47;;;0.40;89.20;;;;;;5034768;28;20491;-77
2023/12/02 01:40:16;;;;;;;53.40;23.20;;;0.40;89.20;;;;;;5030008;28;20198;-78
2023/12/02 01:42:42;;;;;;;52.50;22.00;;;0.40;89.30;;;;;;5033399;28;20194;-78
2023/12/02 01:45:10;;;;;;;48.30;21.25;;;0.60;89.30;;;;;;5035750;28;20177;-76
2023/12/02 01:47:37;;;;;;;55.30;22.65;;;0.70;89.30;;;;;;5034529;28;20187;-77
2023/12/02 01:50:03;;;;;;;53.17;21.77;;;0.80;89.30;;;;;;5048512;28;20213;-77
2023/12/02 01:52:31;;;;;;;50.33;21.52;;;0.60;88.90;;;;;;5034009;28;20196;-79
2023/12/02 01:54:57;;;;;;;61.60;23.08;;;0.60;88.90;;;;;;5035622;28;20229;-76
2023/12/02 01:57:24;;;;;;;48.83;21.45;;;0.60;89.00;;;;;;5035891;28;20224;-79
2023/12/02 01:59:55;;;;;;;46.42;21.17;;;0.60;88.90;;;;;;5028680;28;20232;-77
2023/12/02 02:02:21;;;;;;;56.70;21.95;;;0.50;88.70;;;;;;5024100;28;20189;-77
2023/12/02 02:04:48;;;;;;;53.80;19.65;;;0.40;88.70;;;;;;5031663;28;20253;-77
2023/12/02 02:07:17;;;;;;;47.42;20.33;;;0.50;88.90;;;;;;5031080;28;20185;-77
2023/12/02 02:09:48;;;;;;;53.45;22.70;;;0.60;89.00;;;;;;5033557;28;20212;-77
2023/12/02 02:12:15;;;;;;;54.90;22.40;;;0.70;89.00;;;;;;5036149;28;20190;-79
2023/12/02 02:14:40;;;;;;;55.50;24.67;;;0.60;88.70;;;;;;5034032;28;20186;-76
2023/12/02 02:17:08;;;;;;;58.60;23.13;;;0.40;88.40;;;;;;5027568;28;20208;-77
2023/12/02 02:19:33;;;;;;;56.80;23.23;;;0.30;88.40;;;;;;5019345;28;20288;-78
2023/12/02 02:22:03;;;;;;;55.83;21.40;;;0.30;88.70;;;;;;5014887;28;20252;-76
2023/12/02 02:24:29;;;;;;;49.88;20.75;;;0.30;88.70;;;;;;5023327;28;20261;-78
2023/12/02 02:26:55;;;;;;;55.63;22.37;;;0.30;88.90;;;;;;5019119;28;20190;-80
2023/12/02 02:29:20;;;;;;;53.77;20.87;;;0.40;88.90;;;;;;5024713;28;20260;-77
2023/12/02 02:31:48;;;;;;;52.15;21.05;;;0.40;89.20;;;;;;5021949;28;20245;-78
2023/12/02 02:34:13;;;;;;;55.30;21.30;;;0.50;89.20;;;;;;5022802;28;20224;-78
2023/12/02 02:36:41;;;;;;;59.73;23.20;;;0.40;88.90;;;;;;5018520;28;20182;-77
2023/12/02 02:39:07;;;;;;;55.53;21.13;;;0.20;89.00;;;;;;5014857;28;20667;-76
2023/12/02 02:41:33;;;;;;;51.28;19.75;;;0.20;89.20;;;;;;5016807;28;20208;-78
2023/12/02 02:44:01;;;;;;;58.20;23.93;;;0.20;89.30;;;;;;5016033;28;20277;-77
2023/12/02 02:46:28;;;;;;;61.47;24.80;;;0.20;89.30;;;;;;5021437;28;20201;-77
2023/12/02 02:48:53;;;;;;;55.83;22.45;;;0.30;89.50;;;;;;5019170;28;20178;-78
2023/12/02 02:51:20;;;;;;;53.30;22.00;;;0.20;89.50;;;;;;5018139;28;20241;-79
2023/12/02 02:53:48;;;;;;;64.03;24.13;;;0.30;89.60;;;;;;5014523;28;20212;-78
2023/12/02 02:56:14;;;;;;;58.55;23.52;;;0.30;89.60;;;;;;5026913;28;20185;-76
2023/12/02 02:58:39;;;;;;;56.38;22.08;;;0.30;89.60;;;;;;5026281;28;20233;-78
2023/12/02 03:01:05;;;;;;;54.20;20.40;;;0.30;89.60;;;;;;5025227;28;20225;-78
2023/12/02 03:03:32;;;;;;;61.90;23.03;;;0.20;89.60;;;;;;5030240;28;20190;-76
2023/12/02 03:05:59;;;;;;;46.35;20.30;;;0.10;89.50;;;;;;5035884;28;20182;-76
2023/12/02 03:08:24;;;;;;;48.97;19.98;;;0.10;89.60;;;;;;5035795;28;20193;-75
2023/12/02 03:10:50;;;;;;;65.40;23.47;;;0.10;89.70;;;;;;5034509;28;20198;-76
2023/12/02 03:13:16;;;;;;;63.80;23.70;;;0.10;89.90;;;;;;5034237;28;20182;-76
2023/12/02 03:15:42;;;;;;;58.57;23.53;;;0.10;90.00;;;;;;5038976;28;20178;-76
2023/12/02 03:18:09;;;;;;;60.63;24.38;;;0.10;90.00;;;;;;5051954;28;20232;-77
2023/12/02 03:20:35;;;;;;;66.20;25.92;;;0.00;90.10;;;;;;5035477;28;20198;-75
2023/12/02 03:23:04;;;;;;;63.63;24.47;;;-0.10;90.20;;;;;;5026017;28;20197;-76
2023/12/02 03:25:35;;;;;;;56.22;21.95;;;0.00;90.40;;;;;;5031817;28;20186;-77
2023/12/02 03:28:03;;;;;;;58.35;23.48;;;0.10;90.60;;;;;;5033985;28;20196;-77
2023/12/02 03:30:29;;;;;;;54.33;21.33;;;0.10;90.60;;;;;;5022675;28;20296;-76
2023/12/02 03:32:55;;;;;;;58.83;23.30;;;0.20;90.70;;;;;;5017014;28;20186;-79
2023/12/02 03:35:21;;;;;;;59.30;22.63;;;0.20;90.70;;;;;;5015348;28;20425;-78
2023/12/02 03:37:47;;;;;;;58.72;21.00;;;0.20;90.70;;;;;;5025185;28;20467;-76
2023/12/02 03:40:14;;;;;;;61.70;25.40;;;0.20;90.50;;;;;;5023803;28;20265;-76
2023/12/02 03:42:41;;;;;;;63.50;23.67;;;0.10;90.60;;;;;;5025844;28;20198;-75
2023/12/02 03:45:07;;;;;;;62.80;22.15;;;0.00;90.50;;;;;;5031363;28;20182;-76
2023/12/02 03:47:33;;;;;;;63.05;23.83;;;-0.10;90.50;;;;;;5025814;28;20198;-77
2023/12/02 03:49:59;;;;;;;53.45;22.30;;;-0.10;90.50;;;;;;5026664;28;20221;-77
2023/12/02 03:52:24;;;;;;;56.03;22.40;;;-0.20;90.50;;;;;;5020313;28;20201;-78
2023/12/02 03:54:51;;;;;;;60.47;22.20;;;-0.30;90.60;;;;;;5024701;28;20253;-79
2023/12/02 03:57:20;;;;;;;52.65;22.98;;;-0.20;90.60;;;;;;5017993;28;20221;-82
2023/12/02 03:59:48;;;;;;;55.42;21.25;;;-0.20;90.70;;;;;;5013762;28;20214;-80
2023/12/02 04:02:14;;;;;;;63.90;23.80;;;-0.30;90.70;;;;;;5029381;28;20374;-77
2023/12/02 04:04:39;;;;;;;54.80;21.23;;;-0.20;90.70;;;;;;5027036;28;20253;-80
2023/12/02 04:07:05;;;;;;;70.07;25.03;;;-0.20;90.80;;;;;;5028552;28;20217;-79
2023/12/02 04:09:31;;;;;;;62.83;23.67;;;-0.30;90.80;;;;;;5027115;28;20214;-80
2023/12/02 04:11:56;;;;;;;63.33;23.20;;;-0.30;90.90;;;;;;5026265;28;20686;-78
2023/12/02 04:14:22;;;;;;;60.67;23.43;;;-0.20;91.00;;;;;;5029253;28;20178;-78
2023/12/02 04:16:48;;;;;;;47.87;18.07;;;-0.30;91.00;;;;;;5023833;28;20313;-79
2023/12/02 04:19:14;;;;;;;54.17;21.50;;;-0.30;91.00;;;;;;5026426;28;20460;-78
2023/12/02 04:21:44;;;;;;;52.78;21.85;;;-0.20;91.00;;;;;;5020936;28;20202;-79
2023/12/02 04:24:11;;;;;;;48.47;19.15;;;-0.30;91.00;;;;;;5025684;28;20178;-78
2023/12/02 04:26:38;;;;;;;41.28;18.50;;;-0.30;91.00;;;;;;5030957;28;20205;-79
2023/12/02 04:29:04;;;;;;;48.33;19.80;;;-0.20;91.00;;;;;;5044149;28;20197;-80
2023/12/02 04:31:30;;;;;;;51.58;20.50;;;-0.20;91.00;;;;;;5030387;28;20178;-78
2023/12/02 04:33:57;;;;;;;46.90;20.47;;;-0.30;91.00;;;;;;5022405;28;20240;-80
2023/12/02 04:36:27;;;;;;;44.22;18.52;;;-0.20;91.00;;;;;;5029111;28;20536;-78
2023/12/02 04:38:53;;;;;;;44.90;19.23;;;-0.30;91.00;;;;;;5033675;28;20309;-77
2023/12/02 04:41:19;;;;;;;52.30;20.13;;;-0.20;90.90;;;;;;5020987;28;20218;-77
2023/12/02 04:43:45;;;;;;;46.17;19.73;;;-0.20;90.90;;;;;;5018729;28;20673;-78
2023/12/02 04:46:10;;;;;;;45.73;17.63;;;-0.40;90.90;;;;;;5020070;28;20193;-79
2023/12/02 04:48:37;;;;;;;45.40;17.87;;;-0.50;90.70;;;;;;5034443;28;20186;-76
2023/12/02 04:51:03;;;;;;;41.28;18.30;;;-0.40;90.80;;;;;;5005705;28;20694;-79
2023/12/02 04:53:28;;;;;;;45.75;19.17;;;-0.40;90.80;;;;;;5019097;28;20182;-78
2023/12/02 04:55:54;;;;;;;42.70;18.07;;;-0.40;90.80;;;;;;5020010;28;20209;-79
2023/12/02 04:58:20;;;;;;;45.00;18.60;;;-0.40;90.70;;;;;;5022108;28;20217;-79
2023/12/02 05:00:47;;;;;;;44.92;18.63;;;-0.50;90.70;;;;;;5016955;28;20249;-77
2023/12/02 05:03:17;;;;;;;40.80;17.70;;;-0.40;90.80;;;;;;5026713;28;20205;-77
2023/12/02 05:05:43;;;;;;;45.67;19.77;;;-0.40;90.90;;;;;;5034405;28;20189;-78
2023/12/02 05:08:08;;;;;;;47.65;21.20;;;-0.30;90.90;;;;;;5026254;28;20194;-78
2023/12/02 05:10:35;;;;;;;47.50;19.87;;;-0.40;90.90;;;;;;5026123;28;20257;-79
2023/12/02 05:13:02;;;;;;;52.35;20.30;;;-0.30;90.90;;;;;;5017087;28;20199;-79
2023/12/02 05:15:29;;;;;;;42.03;17.48;;;-0.50;90.90;;;;;;5025637;28;20173;-77
2023/12/02 05:17:55;;;;;;;38.72;16.92;;;-0.40;91.00;;;;;;5020585;28;20682;-77
2023/12/02 05:20:21;;;;;;;49.10;20.27;;;-0.50;90.90;;;;;;5023032;28;20332;-76
2023/12/02 05:22:46;;;;;;;45.40;20.00;;;-0.50;90.90;;;;;;5023594;28;20256;-77
2023/12/02 05:25:13;;;;;;;45.40;20.33;;;-0.50;90.90;;;;;;5019344;28;20188;-78
2023/12/02 05:27:39;;;;;;;39.30;15.88;;;-0.60;90.80;;;;;;5031664;28;20213;-77
2023/12/02 05:30:06;;;;;;;44.30;17.77;;;-0.60;90.90;;;;;;5025427;28;20209;-77
2023/12/02 05:32:33;;;;;;;37.67;17.40;;;-0.50;90.90;;;;;;5016048;28;20366;-78
2023/12/02 05:34:58;;;;;;;34.63;16.95;;;-0.50;91.00;;;;;;5022793;28;20215;-78
2023/12/02 05:37:24;;;;;;;42.33;18.53;;;-0.50;90.90;;;;;;5021940;28;20580;-76
2023/12/02 05:39:50;;;;;;;39.63;17.80;;;-0.50;90.90;;;;;;5017951;28;20229;-78
2023/12/02 05:42:15;;;;;;;49.43;20.60;;;-0.60;90.80;;;;;;5017088;28;20186;-77
2023/12/02 05:44:45;;;;;;;44.10;17.17;;;-0.60;90.80;;;;;;5014446;28;20235;-79
2023/12/02 05:47:11;;;;;;;46.88;18.45;;;-0.60;90.80;;;;;;5016348;28;20248;-80
2023/12/02 05:49:37;;;;;;;45.47;17.15;;;-0.60;90.80;;;;;;5017263;28;20305;-79
2023/12/02 05:52:03;;;;;;;42.03;17.67;;;-0.60;90.80;;;;;;5006580;28;20641;-79
2023/12/02 05:54:28;;;;;;;40.72;17.73;;;-0.60;90.80;;;;;;5017030;28;20178;-78
2023/12/02 05:56:55;;;;;;;32.83;15.97;;;-0.70;90.80;;;;;;5018981;28;20188;-77
2023/12/02 05:59:21;;;;;;;35.88;15.73;;;-0.70;90.70;;;;;;5016005;28;20221;-78
2023/12/02 06:01:46;;;;;;;41.83;16.93;;;-0.60;90.70;;;;;;5006388;28;20197;-77
2023/12/02 06:04:13;;;;;;;43.47;17.80;;;-0.60;90.70;;;;;;5013294;28;20612;-78
2023/12/02 06:06:38;;;;;;;51.63;18.35;;;-0.60;90.70;;;;;;5028315;28;20627;-78
2023/12/02 06:09:05;;;;;;;45.27;19.77;;;-0.50;90.80;;;;;;5015862;28;20276;-79
2023/12/02 06:11:31;;;;;;;39.88;17.02;;;-0.60;90.80;;;;;;5008447;28;20183;-76
2023/12/02 06:13:56;;;;;;;42.17;18.33;;;-0.50;90.80;;;;;;5014504;28;20190;-77
2023/12/02 06:16:23;;;;;;;40.97;19.80;;;-0.50;90.80;;;;;;5021975;28;20424;-79
2023/12/02 06:18:49;;;;;;;37.22;16.80;;;-0.50;90.80;;;;;;5015965;28;20313;-78
2023/12/02 06:21:14;;;;;;;36.20;15.93;;;-0.50;90.80;;;;;;5010208;28;20237;-76
2023/12/02 06:23:40;;;;;;;40.47;16.53;;;-0.60;90.70;;;;;;5015194;28;20563;-77
2023/12/02 06:26:06;;;;;;;50.87;20.30;;;-0.60;90.70;;;;;;5016960;28;20616;-79
2023/12/02 06:28:32;;;;;;;37.88;16.77;;;-0.70;90.70;;;;;;5017889;28;20185;-77
2023/12/02 06:30:57;;;;;;;38.63;15.80;;;-0.70;90.80;;;;;;5014098;28;20206;-79
2023/12/02 06:33:23;;;;;;;53.67;18.30;;;-0.70;90.80;;;;;;5011560;28;20202;-79
2023/12/02 06:35:49;;;;;;;43.30;18.53;;;-0.80;90.90;;;;;;5017696;28;20539;-78
2023/12/02 06:38:14;;;;;;;36.90;15.67;;;-0.70;90.80;;;;;;5018685;28;20224;-76
2023/12/02 06:40:40;;;;;;;41.63;17.10;;;-0.70;90.90;;;;;;5015205;28;20205;-77
2023/12/02 06:43:05;;;;;;;45.43;18.27;;;-0.80;90.90;;;;;;5013047;28;20171;-77
2023/12/02 06:45:31;;;;;;;41.03;18.23;;;-0.70;90.80;;;;;;5015380;28;20186;-78
2023/12/02 06:47:58;;;;;;;40.63;16.77;;;-0.80;90.80;;;;;;5018657;28;20186;-76
2023/12/02 06:50:24;;;;;;;35.05;16.70;;;-0.80;90.70;;;;;;5016430;28;20202;-78
2023/12/02 06:52:50;;;;;;;44.03;18.47;;;-0.80;90.70;;;;;;5014149;28;20186;-79
2023/12/02 06:55:16;;;;;;;49.33;20.60;;;-0.80;90.60;;;;;;5012969;28;20204;-76
2023/12/02 06:57:42;;;;;;;48.67;21.77;;;-0.80;90.60;;;;;;5014964;28;20596;-78
2023/12/02 07:00:09;;;;;;;44.27;20.47;;;-0.80;90.60;;;;;;5027603;28;20220;-77
2023/12/02 07:02:36;;;;;;;49.08;20.85;;;-0.80;90.70;;;;;;5006020;28;20208;-76
2023/12/02 07:05:03;;;;;;;41.35;17.90;;;-1.00;90.70;;;;;;5025307;28;20182;-77
2023/12/02 07:07:34;;;;;;;38.28;17.38;;;-1.00;90.60;;;;;;5034172;28;20193;-76
2023/12/02 07:10:07;;;;;;;46.20;19.50;;;-0.90;90.70;;;;;;5030546;28;20232;-75
2023/12/02 07:12:38;;;;;;;45.28;19.85;;;-0.80;90.70;;;;;;5027828;28;20193;-78
2023/12/02 07:15:06;;;;;;;45.88;20.10;;;-0.80;90.70;;;;;;5023864;28;20182;-79
2023/12/02 07:17:32;;;;;;;39.90;15.30;;;-0.90;90.60;;;;;;5026184;28;20225;-78
2023/12/02 07:19:59;;;;;;;37.55;14.30;;;-1.10;90.50;;;;;;5021967;28;20272;-77
2023/12/02 07:22:26;;;;;;;40.15;17.55;;;-1.00;90.40;;;;;;5023032;28;20215;-77
2023/12/02 07:24:52;;;;;;;44.83;16.15;;;-0.90;90.30;;;;;;5030155;28;20221;-77
2023/12/02 07:27:18;;;;;;;36.28;16.35;;;-0.80;90.30;;;;;;5028460;28;20198;-77
2023/12/02 07:29:44;;;;;;;47.40;17.97;;;-0.80;90.20;;;;;;5019859;28;20216;-78
2023/12/02 07:32:12;;;;;;;33.00;15.45;;;-0.90;89.90;;;;;;5021314;28;20178;-78
2023/12/02 07:34:39;;;;;;;40.60;17.67;;;-0.90;89.60;;;;;;5029714;28;20197;-78
2023/12/02 07:37:06;;;;;;;37.50;15.00;;;-0.90;89.60;;;;;;5028822;28;20178;-80
2023/12/02 07:39:36;;;;;;;43.53;16.30;;;-0.80;89.60;;;;;;5021335;28;20212;-77
2023/12/02 07:42:01;;;;;;;34.85;16.85;;;-0.70;89.50;;;;;;5024272;28;20205;-78
2023/12/02 07:44:29;;;;;;;41.22;16.33;;;-0.70;89.00;;;;;;5031522;28;20194;-77
2023/12/02 07:46:55;;;;;;;45.25;18.05;;;-0.70;88.90;;;;;;5026294;28;20206;-78
2023/12/02 07:49:21;;;;;;;37.25;17.20;;;-0.70;88.90;;;;;;5028847;28;20194;-76
2023/12/02 07:51:47;;;;;;;39.17;17.92;;;-0.80;88.70;;;;;;5027192;28;20213;-76
2023/12/02 07:54:12;;;;;;;42.70;16.30;;;-0.80;88.70;;;;;;5022792;28;20204;-76
2023/12/02 07:56:39;;;;;;;38.47;16.97;;;-0.70;88.40;;;;;;5027856;28;20204;-79
2023/12/02 07:59:06;;;;;;;39.15;17.25;;;-0.70;88.40;;;;;;5021857;28;20272;-78
2023/12/02 08:01:33;;;;;;;34.70;15.50;;;-0.60;88.40;;;;;;5020096;28;20216;-78
2023/12/02 08:03:59;;;;;;;36.08;15.55;;;-0.60;88.40;;;;;;5007935;28;20205;-78
2023/12/02 08:06:24;;;;;;;35.57;15.17;;;-0.60;88.40;;;;;;5012340;28;20220;-76
2023/12/02 08:08:52;;;;;;;34.03;14.90;;;-0.60;88.60;;;;;;5012573;28;20215;-77
2023/12/02 08:11:18;;;;;;;27.20;12.90;;;-0.70;87.80;;;;;;5001203;28;20672;-78
2023/12/02 08:13:44;;;;;;;39.83;15.60;;;-0.70;87.70;;;;;;5007756;28;20185;-78
2023/12/02 08:16:10;;;;;;;34.35;13.32;;;-0.60;87.60;;;;;;5012258;28;20623;-76
2023/12/02 08:18:36;;;;;;;40.73;14.50;;;-0.50;87.40;;;;;;5009261;28;20304;-78
2023/12/02 08:21:01;;;;;;;36.63;15.87;;;-0.50;87.40;;;;;;5013642;28;20306;-78
2023/12/02 08:23:27;;;;;;;40.27;16.43;;;-0.50;87.40;;;;;;5007416;28;20247;-78
2023/12/02 08:25:52;;;;;;;37.27;16.17;;;-0.70;87.10;;;;;;5011021;28;20202;-77
2023/12/02 08:28:18;;;;;;;38.13;17.17;;;-0.60;87.30;;;;;;5013321;28;20823;-80
2023/12/02 08:30:44;;;;;;;34.60;15.60;;;-0.70;87.30;;;;;;5003498;28;20683;-77
2023/12/02 08:33:09;;;;;;;36.20;16.67;;;-0.70;87.30;;;;;;5008076;28;20248;-77
2023/12/02 08:35:35;;;;;;;33.20;15.17;;;-0.80;87.30;;;;;;5012418;28;20197;-76
2023/12/02 08:38:05;;;;;;;41.83;15.50;;;-0.70;87.40;;;;;;5016393;28;20304;-78
2023/12/02 08:40:31;;;;;;;32.63;15.68;;;-0.60;87.60;;;;;;5013388;28;20241;-79
2023/12/02 08:42:57;;;;;;;41.55;17.20;;;-0.50;87.40;;;;;;5016957;28;20713;-80
2023/12/02 08:45:22;;;;;;;40.57;15.70;;;-0.60;87.40;;;;;;5025679;28;20288;-78
2023/12/02 08:47:48;;;;;;;38.43;17.33;;;-0.50;87.30;;;;;;5027574;28;20206;-82
2023/12/02 08:50:14;;;;;;;36.53;15.97;;;-0.40;87.30;;;;;;5027160;28;20292;-78
2023/12/02 08:52:39;;;;;;;37.93;17.23;;;-0.60;87.00;;;;;;5025849;28;20440;-81
2023/12/02 08:55:05;;;;;;;40.93;17.67;;;-0.60;86.90;;;;;;5026221;28;20685;-79
2023/12/02 08:57:31;;;;;;;38.63;17.50;;;-0.70;87.00;;;;;;5028382;28;20224;-79
2023/12/02 08:59:56;;;;;;;42.23;17.93;;;-0.70;87.00;;;;;;5022348;28;20472;-79
2023/12/02 09:02:22;;;;;;;39.23;16.93;;;-0.60;87.10;;;;;;5018957;28;20637;-82
2023/12/02 09:04:48;;;;;;;41.83;17.77;;;-0.50;87.30;;;;;;5018968;28;20771;-80
2023/12/02 09:07:15;;;;;;;42.07;18.97;;;-0.50;87.40;;;;;;5024225;28;20209;-79
2023/12/02 09:09:42;;;;;;;42.90;18.83;;;-0.80;87.00;;;;;;5026144;28;20212;-77
2023/12/02 09:12:09;;;;;;;38.30;16.75;;;-0.90;87.30;;;;;;5015602;28;20186;-80
2023/12/02 09:14:35;;;;;;;43.45;18.38;;;-0.80;87.60;;;;;;5030168;28;20201;-80
2023/12/02 09:17:00;;;;;;;37.67;16.73;;;-0.80;87.70;;;;;;5023314;28;20178;-80
2023/12/02 09:19:29;;;;;;;44.23;16.77;;;-0.70;87.70;;;;;;5015687;28;20287;-79
2023/12/02 09:21:54;;;;;;;34.22;15.45;;;-0.80;87.70;;;;;;5015664;28;20185;-79
2023/12/02 09:24:40;;;;;;;38.50;16.60;;;-0.80;87.70;;;;;;5031133;28;20210;-78
2023/12/02 09:27:07;;;;;;;39.45;16.13;;;-0.70;87.70;;;;;;5033251;28;20261;-80
2023/12/02 09:29:42;;;;;;;38.45;17.25;;;-0.60;87.70;;;;;;5021134;28;20206;-81
2023/12/02 09:32:44;;;;;;;35.03;15.38;;;-0.70;87.70;;;;;;5031230;28;20563;-82
2023/12/02 09:35:12;;;;;;;35.55;15.65;;;-0.80;87.80;;;;;;5010400;28;20253;-81
2023/12/02 09:38:00;;;;;;;33.28;14.32;;;-0.80;87.70;;;;;;5018096;28;20205;-80
2023/12/02 09:41:04;;;;;;;39.47;17.48;;;-0.90;87.70;;;;;;5017498;28;20245;-78
2023/12/02 09:43:45;;;;;;;34.72;16.58;;;-0.90;87.80;;;;;;5010966;28;20194;-81
2023/12/02 09:46:21;;;;;;;36.05;16.23;;;-1.00;88.00;;;;;;5020487;28;20719;-81
2023/12/02 09:49:12;;;;;;;36.38;15.32;;;-1.00;88.00;;;;;;5019922;28;20193;-80
2023/12/02 09:52:16;;;;;;;33.72;14.68;;;-1.00;88.10;;;;;;5016564;28;20205;-81
2023/12/02 09:55:06;;;;;;;30.80;14.27;;;-0.90;88.00;;;;;;5014635;28;20257;-79
2023/12/02 09:58:24;;;;;;;37.63;17.10;;;-0.90;88.00;;;;;;5025987;28;20205;-80
2023/12/02 10:01:18;;;;;;;35.75;15.13;;;-0.80;87.80;;;;;;4955113;29;20263;-80
2023/12/02 10:04:08;;;;;;;31.83;15.80;;;-0.90;87.70;;;;;;4913841;29;20198;-79
2023/12/02 10:07:07;;;;;;;31.70;15.18;;;-1.00;87.60;;;;;;4923840;29;20182;-82
2023/12/02 10:09:53;;;;;;;37.58;17.52;;;-1.00;87.80;;;;;;4911375;29;20281;-81
2023/12/02 10:13:10;;;;;;;41.92;16.20;;;-1.10;87.80;;;;;;4911595;29;20419;-80
2023/12/02 10:16:00;;;;;;;40.33;15.98;;;-1.00;88.00;;;;;;4908845;29;20607;-80
2023/12/02 10:18:31;;;;;;;35.42;14.77;;;-1.00;88.10;;;;;;4909933;29;20248;-81
2023/12/02 10:21:03;;;;;;;37.33;16.60;;;-1.00;88.00;;;;;;4908033;29;20225;-82
2023/12/02 10:23:32;;;;;;;31.98;15.05;;;-1.10;87.70;;;;;;4913302;29;20188;-80
2023/12/02 10:26:18;;;;;;;33.17;14.77;;;-1.10;87.70;;;;;;4921031;29;20265;-80
2023/12/02 10:29:05;;;;;;;36.15;15.40;;;-0.90;87.70;;;;;;4897520;29;20202;-81
2023/12/02 10:31:35;;;;;;;34.10;15.32;;;-1.00;87.70;;;;;;4916208;29;20209;-81
2023/12/02 10:34:28;;;;;;;32.55;14.25;;;-0.80;87.60;;;;;;4928533;29;20210;-81
2023/12/02 10:36:58;;;;;;;29.65;14.27;;;-0.70;87.60;;;;;;4960642;29;20186;-81
2023/12/02 10:39:35;;;;;;;35.28;15.90;;;-0.70;87.30;;;;;;4938719;28;20239;-80
2023/12/02 10:42:07;;;;;;;33.75;15.63;;;-0.80;87.10;;;;;;5017207;28;20189;-79
2023/12/02 10:44:35;;;;;;;30.15;13.82;;;-0.90;87.00;;;;;;5022670;28;20188;-80
2023/12/02 10:47:03;;;;;;;32.47;15.65;;;-0.80;87.00;;;;;;5019168;28;20437;-81
2023/12/02 10:49:29;;;;;;;38.20;15.88;;;-1.00;86.80;;;;;;5014445;28;20395;-82
2023/12/02 10:52:00;;;;;;;36.15;14.95;;;-0.90;86.90;;;;;;5014622;28;20178;-82
2023/12/02 10:54:30;;;;;;;30.77;14.60;;;-0.90;86.90;;;;;;5015777;28;20197;-81
2023/12/02 10:57:15;;;;;;;38.47;16.17;;;-0.90;86.80;;;;;;5021942;28;20182;-82
2023/12/02 10:59:55;;;;;;;14.80;7.88;;;-0.90;86.80;;;;;;5020298;28;20230;-81
2023/12/02 11:02:47;;;;;;;34.00;15.38;;;-0.90;86.80;;;;;;5016686;28;20187;-80
2023/12/02 11:05:40;;;;;;;31.08;13.80;;;-0.80;86.60;;;;;;5019925;28;20202;-79
2023/12/02 11:08:12;;;;;;;37.35;15.45;;;-1.00;86.60;;;;;;5025461;28;20189;-80
2023/12/02 11:10:46;;;;;;;36.83;15.35;;;-1.00;86.80;;;;;;5028227;28;20212;-81
2023/12/02 11:13:17;;;;;;;36.70;15.13;;;-1.10;86.90;;;;;;5022443;28;20228;-80
2023/12/02 11:16:15;;;;;;;32.15;14.45;;;-1.10;87.10;;;;;;5027350;28;20213;-81
2023/12/02 11:19:10;;;;;;;39.38;15.90;;;-1.00;87.30;;;;;;5017232;28;20216;-82
2023/12/02 11:22:16;;;;;;;33.10;14.93;;;-0.80;87.10;;;;;;5019582;28;20835;-82
2023/12/02 11:25:18;;;;;;;36.80;14.98;;;-0.90;87.00;;;;;;5024717;28;20185;-81
2023/12/02 11:28:05;;;;;;;32.70;14.13;;;-0.80;86.90;;;;;;5015596;28;20655;-81
2023/12/02 11:30:45;;;;;;;30.00;13.40;;;-1.00;86.30;;;;;;5016621;28;20209;-80
2023/12/02 11:33:44;;;;;;;26.77;13.25;;;-1.00;86.20;;;;;;5034726;28;20242;-82
2023/12/02 11:36:31;;;;;;;28.20;13.02;;;-0.80;86.20;;;;;;5020036;28;20197;-81
2023/12/02 11:39:28;;;;;;;26.92;12.88;;;-0.70;85.90;;;;;;5021382;28;20320;-82
2023/12/02 11:41:56;;;;;;;28.10;12.45;;;-0.90;85.70;;;;;;5014737;28;20190;-81
2023/12/02 11:45:09;;;;;;;28.95;13.82;;;-0.90;85.50;;;;;;5016563;28;20272;-81
2023/12/02 11:47:40;;;;;;;26.20;10.20;;;-0.80;85.60;;;;;;5025480;28;20202;-81
2023/12/02 11:50:17;;;;;;;24.85;13.05;;;-0.90;85.70;;;;;;5014788;28;20303;-82
2023/12/02 11:52:44;;;;;;;27.80;11.60;;;-0.90;85.60;;;;;;5020586;28;20201;-82
2023/12/02 11:55:33;;;;;;;30.70;14.00;;;-0.90;85.50;;;;;;5019699;28;20197;-80
2023/12/02 11:58:25;;;;;;;24.40;11.50;;;-1.20;85.50;;;;;;5005630;28;20222;-79
2023/12/02 12:01:10;;;;;;;21.85;12.20;;;-1.20;85.60;;;;;;5014528;28;20213;-81
2023/12/02 12:04:02;;;;;;;24.90;12.43;;;-1.10;85.70;;;;;;5010615;28;20194;-80
2023/12/02 12:06:54;;;;;;;23.23;11.80;;;-1.00;85.70;;;;;;5008531;28;20182;-79
2023/12/02 12:09:23;;;;;;;27.17;12.80;;;-1.10;85.30;;;;;;5011370;28;20202;-81
2023/12/02 12:11:53;;;;;;;27.45;12.30;;;-1.20;85.20;;;;;;5012535;28;20216;-81
2023/12/02 12:14:20;;;;;;;30.15;12.20;;;-1.20;85.50;;;;;;5022140;28;20201;-81
2023/12/02 12:16:47;;;;;;;31.15;14.43;;;-1.10;85.50;;;;;;5019080;28;20296;-79
2023/12/02 12:19:13;;;;;;;25.30;11.52;;;-1.00;85.50;;;;;;5027947;28;20293;-80
2023/12/02 12:21:40;;;;;;;22.30;12.85;;;-1.10;85.50;;;;;;5016527;28;20210;-80
2023/12/02 12:24:06;;;;;;;22.52;11.70;;;-1.00;85.70;;;;;;5022435;28;20193;-79
2023/12/02 12:26:32;;;;;;;25.03;11.63;;;-1.00;85.60;;;;;;5021969;28;20187;-79
2023/12/02 12:28:57;;;;;;;20.70;11.17;;;-1.10;85.20;;;;;;5029840;28;20432;-80
2023/12/02 12:31:23;;;;;;;34.30;12.83;;;-1.00;85.30;;;;;;5014793;28;20462;-80
2023/12/02 12:33:51;;;;;;;28.00;11.70;;;-1.20;85.20;;;;;;5013922;28;20217;-78
2023/12/02 12:36:29;;;;;;;27.95;11.07;;;-1.20;85.30;;;;;;5031362;28;20192;-80
2023/12/02 12:38:57;;;;;;;17.20;9.63;;;-1.00;85.60;;;;;;5025787;28;20214;-82
2023/12/02 12:41:29;;;;;;;24.10;11.10;;;-0.90;85.50;;;;;;5019629;28;20216;-81
2023/12/02 12:43:54;;;;;;;16.55;8.43;;;-1.00;84.90;;;;;;5020120;28;20208;-81
2023/12/02 12:46:25;;;;;;;20.55;10.10;;;-1.10;84.60;;;;;;5023679;28;20190;-82